createdAt,value
2023-09-21T00:02:24.979Z,73.00
2023-09-21T00:07:28.247Z,71.67
2023-09-21T00:12:32.960Z,73.14
2023-09-21T00:17:35.976Z,73.58
2023-09-21T00:22:38.807Z,73.33
2023-09-21T00:27:42.981Z,71.61
2023-09-21T00:32:45.837Z,72.70
2023-09-21T00:37:48.739Z,70.33
2023-09-21T00:42:53.856Z,71.67
2023-09-21T00:47:57.321Z,72.56
2023-09-21T00:53:00.466Z,72.44
2023-09-21T00:58:06.471Z,70.97
2023-09-21T01:03:13.308Z,72.24
2023-09-21T01:08:21.277Z,70.87
2023-09-21T01:13:27.025Z,71.68
2023-09-21T01:18:30.026Z,72.46
2023-09-21T01:23:37.924Z,70.59
2023-09-21T01:28:41.710Z,71.50
2023-09-21T01:33:44.788Z,71.87
2023-09-21T01:38:50.127Z,70.50
2023-09-21T01:43:52.949Z,72.59
2023-09-21T01:48:56.077Z,74.21
2023-09-21T01:54:00.493Z,72.46
2023-09-21T01:59:04.881Z,73.16
2023-09-21T02:04:09.000Z,73.89
2023-09-21T02:09:16.151Z,73.82
2023-09-21T02:14:19.027Z,74.71
2023-09-21T02:19:21.827Z,72.99
2023-09-21T02:24:26.827Z,74.41
2023-09-21T02:29:29.623Z,72.53
2023-09-21T02:34:33.114Z,74.08
2023-09-21T02:39:37.293Z,74.04
2023-09-21T02:44:40.584Z,73.34
2023-09-21T02:49:43.632Z,74.15
2023-09-21T02:54:48.172Z,73.44
2023-09-21T02:59:51.931Z,75.20
2023-09-21T03:04:56.349Z,72.29
2023-09-21T03:10:06.082Z,72.84
2023-09-21T03:15:14.769Z,74.00
2023-09-21T03:20:29.596Z,73.09
2023-09-21T03:25:34.800Z,73.46
2023-09-21T03:30:37.645Z,73.03
2023-09-21T03:35:41.112Z,72.57
2023-09-21T03:40:45.787Z,71.40
2023-09-21T03:45:49.085Z,70.74
2023-09-21T03:50:53.576Z,73.58
2023-09-21T03:55:58.378Z,73.87
2023-09-21T04:01:05.441Z,73.66
2023-09-21T04:06:08.648Z,74.48
2023-09-21T04:11:13.180Z,75.00
2023-09-21T04:16:16.852Z,74.69
2023-09-21T04:21:21.163Z,75.36
2023-09-21T04:26:26.015Z,74.71
2023-09-21T04:31:29.059Z,73.37
2023-09-21T04:36:32.116Z,72.05
2023-09-21T04:41:36.635Z,71.10
2023-09-21T04:46:39.770Z,70.59
2023-09-21T04:51:42.712Z,71.22
2023-09-21T04:56:47.050Z,70.02
2023-09-21T05:01:50.075Z,71.19
2023-09-21T05:06:52.933Z,72.73
2023-09-21T05:11:57.763Z,72.25
2023-09-21T05:17:01.603Z,71.78
2023-09-21T05:22:05.628Z,70.69
2023-09-21T05:27:10.413Z,71.13
2023-09-21T05:32:13.232Z,71.33
2023-09-21T05:37:16.407Z,72.03
2023-09-21T05:42:20.599Z,71.26
2023-09-21T05:47:28.665Z,70.13
2023-09-21T05:52:33.316Z,68.78
2023-09-21T05:57:37.642Z,66.75
2023-09-21T06:02:40.517Z,61.33
2023-09-21T06:07:43.387Z,62.29
2023-09-21T06:12:47.511Z,61.28
2023-09-21T06:17:50.511Z,58.58
2023-09-21T06:22:53.739Z,58.82
2023-09-21T06:27:57.885Z,60.23
2023-09-21T06:33:01.693Z,61.26
2023-09-21T06:38:05.774Z,60.05
2023-09-21T06:43:09.926Z,59.01
2023-09-21T06:48:13.104Z,55.67
2023-09-21T06:53:17.822Z,53.35
2023-09-21T06:58:21.976Z,53.54
2023-09-21T07:03:24.952Z,46.65
2023-09-21T07:08:27.796Z,39.90
2023-09-21T07:13:31.929Z,36.72
2023-09-21T07:18:34.978Z,37.18
2023-09-21T07:23:37.977Z,37.65
2023-09-21T07:28:42.422Z,38.56
2023-09-21T07:33:45.641Z,39.22
2023-09-21T07:38:48.469Z,42.39
2023-09-21T07:43:52.618Z,45.46
2023-09-21T07:48:55.439Z,48.44
2023-09-21T07:53:58.588Z,49.06
2023-09-21T07:59:02.841Z,49.42
2023-09-21T08:04:06.270Z,49.50
2023-09-21T08:09:15.858Z,49.33
2023-09-21T08:14:35.827Z,49.41
2023-09-21T08:19:39.350Z,48.79
2023-09-21T08:24:43.264Z,48.45
2023-09-21T08:29:48.939Z,48.66
2023-09-21T08:34:51.892Z,48.25
2023-09-21T08:39:54.856Z,46.79
2023-09-21T08:44:59.500Z,44.92
2023-09-21T08:50:04.818Z,44.51
2023-09-21T08:55:11.947Z,44.05
2023-09-21T09:00:18.353Z,45.02
2023-09-21T09:05:21.584Z,45.29
2023-09-21T09:10:24.992Z,44.50
2023-09-21T09:15:38.553Z,44.54
2023-09-21T09:20:43.509Z,43.92
2023-09-21T09:25:46.724Z,44.51
2023-09-21T09:30:53.302Z,45.04
2023-09-21T09:35:56.200Z,44.16
2023-09-21T09:41:04.180Z,44.42
2023-09-21T09:46:13.275Z,43.75
2023-09-21T09:51:22.522Z,43.23
2023-09-21T09:56:27.740Z,43.16
2023-09-21T10:01:34.956Z,43.24
2023-09-21T10:06:38.718Z,42.86
2023-09-21T10:11:43.804Z,42.27
2023-09-21T10:16:56.353Z,42.96
2023-09-21T10:22:01.073Z,42.19
2023-09-21T10:27:05.351Z,41.70
2023-09-21T10:32:09.539Z,41.48
2023-09-21T10:37:16.596Z,40.59
2023-09-21T10:42:35.725Z,39.41
2023-09-21T10:47:49.090Z,39.00
2023-09-21T10:52:56.608Z,39.18
2023-09-21T10:58:01.807Z,40.03
2023-09-21T11:03:06.479Z,40.00
2023-09-21T11:08:09.442Z,40.68
2023-09-21T11:13:12.235Z,40.83
2023-09-21T11:18:16.632Z,42.20
2023-09-21T11:23:20.538Z,41.46
2023-09-21T11:28:23.894Z,39.97
2023-09-21T11:33:31.474Z,40.91
2023-09-21T11:38:35.422Z,40.41
2023-09-21T11:43:38.428Z,40.72
2023-09-21T11:48:45.005Z,40.44
2023-09-21T11:53:50.003Z,41.05
2023-09-21T11:58:56.619Z,41.68
2023-09-21T12:04:00.941Z,41.07
2023-09-21T12:09:08.889Z,41.53
2023-09-21T12:14:13.331Z,41.86
2023-09-21T12:19:17.534Z,42.52
2023-09-21T12:24:22.694Z,43.14
2023-09-21T12:29:26.169Z,42.78
2023-09-21T12:34:32.950Z,41.47
2023-09-21T12:39:36.278Z,41.77
2023-09-21T12:44:39.510Z,42.32
2023-09-21T12:49:45.760Z,41.61
2023-09-21T12:54:48.592Z,43.11
2023-09-21T12:59:51.427Z,42.56
2023-09-21T13:04:56.822Z,41.04
2023-09-21T13:10:01.394Z,42.27
2023-09-21T13:15:05.105Z,42.63
2023-09-21T13:20:17.961Z,43.65
2023-09-21T13:25:21.799Z,43.26
2023-09-21T13:30:24.649Z,43.65
2023-09-21T13:35:29.462Z,44.26
2023-09-21T13:40:32.322Z,44.49
2023-09-21T13:45:35.915Z,44.51
2023-09-21T13:50:40.903Z,45.78
2023-09-21T13:55:43.795Z,46.23
2023-09-21T14:00:50.115Z,47.83
2023-09-21T14:05:54.739Z,47.70
2023-09-21T14:11:00.280Z,49.88
2023-09-21T14:16:03.824Z,49.96
2023-09-21T14:21:08.741Z,48.84
2023-09-21T14:26:11.685Z,49.97
2023-09-21T14:31:14.711Z,49.45
2023-09-21T14:36:19.106Z,48.94
2023-09-21T14:41:41.924Z,49.91
2023-09-21T14:46:45.413Z,50.06
2023-09-21T14:51:49.842Z,49.51
2023-09-21T14:56:52.718Z,49.01
2023-09-21T15:01:56.374Z,50.25
2023-09-21T15:07:00.623Z,50.56
2023-09-21T15:12:04.510Z,51.36
2023-09-21T15:17:08.406Z,51.34
2023-09-21T15:22:13.149Z,51.65
2023-09-21T15:27:18.508Z,52.53
2023-09-21T15:32:21.422Z,51.90
2023-09-21T15:37:27.893Z,52.32
2023-09-21T15:42:31.095Z,52.69
2023-09-21T15:47:36.252Z,54.36
2023-09-21T15:52:40.848Z,54.61
2023-09-21T15:57:48.905Z,53.17
2023-09-21T16:02:51.824Z,53.40
2023-09-21T16:07:56.169Z,55.01
2023-09-21T16:13:00.540Z,54.78
2023-09-21T16:18:04.295Z,55.71
2023-09-21T16:23:08.607Z,56.07
2023-09-21T16:28:21.992Z,56.30
2023-09-21T16:33:28.052Z,59.19
2023-09-21T16:38:32.877Z,60.57
2023-09-21T16:43:35.738Z,61.44
2023-09-21T16:48:38.790Z,62.62
2023-09-21T16:53:43.351Z,63.13
2023-09-21T16:58:50.940Z,64.40
2023-09-21T17:03:53.915Z,63.89
2023-09-21T17:09:01.337Z,64.77
2023-09-21T17:14:04.156Z,63.86
2023-09-21T17:19:07.887Z,65.09
2023-09-21T17:24:12.354Z,65.89
2023-09-21T17:29:15.772Z,65.38
2023-09-21T17:34:19.121Z,65.19
2023-09-21T17:39:23.589Z,66.88
2023-09-21T17:44:26.854Z,66.11
2023-09-21T17:49:29.853Z,69.16
2023-09-21T17:54:34.486Z,70.96
2023-09-21T17:59:37.781Z,70.78
2023-09-21T18:04:43.810Z,69.96
2023-09-21T18:09:49.016Z,71.66
2023-09-21T18:14:51.925Z,71.74
2023-09-21T18:19:55.865Z,71.35
2023-09-21T18:25:07.258Z,71.14
2023-09-21T18:30:10.773Z,71.96
2023-09-21T18:35:15.726Z,71.93
2023-09-21T18:40:19.940Z,74.59
2023-09-21T18:45:22.849Z,73.91
2023-09-21T18:50:25.835Z,75.09
2023-09-21T18:55:30.213Z,76.47
2023-09-21T19:00:34.370Z,79.51
2023-09-21T19:05:37.870Z,77.85
2023-09-21T19:10:42.345Z,76.77
2023-09-21T19:15:46.439Z,76.87
2023-09-21T19:20:49.381Z,77.69
2023-09-21T19:25:53.832Z,76.88
2023-09-21T19:30:57.329Z,77.71
2023-09-21T19:36:01.316Z,76.98
2023-09-21T19:41:06.808Z,77.05
2023-09-21T19:46:09.765Z,76.50
2023-09-21T19:51:13.265Z,76.33
2023-09-21T19:56:17.675Z,76.36
2023-09-21T20:01:20.623Z,78.21
2023-09-21T20:06:23.676Z,77.55
2023-09-21T20:11:28.203Z,80.04
2023-09-21T20:16:31.158Z,81.24
2023-09-21T20:21:34.138Z,78.78
2023-09-21T20:26:38.330Z,83.88
2023-09-21T20:31:41.522Z,83.10
2023-09-21T20:36:44.635Z,81.64
2023-09-21T20:41:49.051Z,83.58
2023-09-21T20:46:52.284Z,83.03
2023-09-21T20:51:55.224Z,83.31
2023-09-21T20:57:00.231Z,83.95
2023-09-21T21:02:03.652Z,83.10
2023-09-21T21:07:06.422Z,88.11
2023-09-21T21:12:10.612Z,85.15
2023-09-21T21:17:13.616Z,88.74
2023-09-21T21:22:16.433Z,85.71
2023-09-21T21:27:21.221Z,86.02
2023-09-21T21:32:24.390Z,85.68
2023-09-21T21:37:27.299Z,85.39
2023-09-21T21:42:31.526Z,87.84
2023-09-21T21:47:34.539Z,86.49
2023-09-21T21:52:37.378Z,86.38
2023-09-21T21:57:41.865Z,91.91
2023-09-21T22:02:44.792Z,94.80
2023-09-21T22:07:47.642Z,97.22
2023-09-21T22:12:52.128Z,97.22
2023-09-21T22:17:54.994Z,93.78
2023-09-21T22:22:57.774Z,99.11
2023-09-21T22:28:02.000Z,100.00
2023-09-21T22:33:05.446Z,100.00
2023-09-21T22:38:14.778Z,100.00
2023-09-21T22:43:19.653Z,97.30
2023-09-21T22:48:22.500Z,93.63
2023-09-21T22:53:26.587Z,91.66
2023-09-21T22:58:31.685Z,95.29
2023-09-21T23:03:35.093Z,93.74
2023-09-21T23:08:38.095Z,89.57
2023-09-21T23:13:43.848Z,90.36
2023-09-21T23:18:46.910Z,91.86
2023-09-21T23:23:49.812Z,90.27
2023-09-21T23:28:53.982Z,90.66
2023-09-21T23:33:57.007Z,88.26
2023-09-21T23:39:00.531Z,87.77
2023-09-21T23:44:05.352Z,89.74
2023-09-21T23:49:08.201Z,90.66
2023-09-21T23:54:10.989Z,91.60
2023-09-21T23:59:15.435Z,90.78
